createdAt,value
2018-03-29T00:02:23.694Z,15.30
2018-03-29T00:04:51.926Z,15.10
2018-03-29T00:07:20.182Z,14.90
2018-03-29T00:09:49.224Z,12.60
2018-03-29T00:12:17.448Z,12.83
2018-03-29T00:14:46.455Z,13.43
2018-03-29T00:17:14.745Z,12.43
2018-03-29T00:19:43.150Z,13.10
2018-03-29T00:22:11.438Z,12.53
2018-03-29T00:24:39.859Z,12.47
2018-03-29T00:27:09.018Z,13.27
2018-03-29T00:29:37.315Z,14.77
2018-03-29T00:32:05.574Z,13.43
2018-03-29T00:34:33.802Z,15.27
2018-03-29T00:37:02.110Z,13.63
2018-03-29T00:39:30.507Z,13.60
2018-03-29T00:41:58.819Z,12.73
2018-03-29T00:44:27.865Z,14.20
2018-03-29T00:46:56.125Z,12.90
2018-03-29T00:49:24.522Z,16.20
2018-03-29T00:51:52.775Z,13.43
2018-03-29T00:54:21.789Z,14.57
2018-03-29T00:56:50.111Z,16.73
2018-03-29T00:59:18.582Z,15.23
2018-03-29T01:01:47.600Z,15.67
2018-03-29T01:04:16.217Z,16.37
2018-03-29T01:06:45.577Z,18.73
2018-03-29T01:09:13.946Z,18.17
2018-03-29T01:11:42.185Z,19.90
2018-03-29T01:14:10.388Z,19.73
2018-03-29T01:16:40.490Z,18.43
2018-03-29T01:19:08.706Z,19.83
2018-03-29T01:21:41.094Z,21.40
2018-03-29T01:24:09.379Z,21.63
2018-03-29T01:26:43.483Z,21.73
2018-03-29T01:29:28.518Z,21.07
2018-03-29T01:31:58.410Z,22.63
2018-03-29T01:34:30.510Z,23.60
2018-03-29T01:37:06.215Z,23.30
2018-03-29T01:39:40.130Z,23.00
2018-03-29T01:42:15.719Z,21.93
2018-03-29T01:44:44.087Z,26.40
2018-03-29T01:47:12.605Z,25.10
2018-03-29T01:49:42.356Z,25.17
2018-03-29T01:52:11.828Z,24.50
2018-03-29T01:54:40.980Z,23.30
2018-03-29T01:57:09.238Z,26.47
2018-03-29T01:59:38.360Z,25.97
2018-03-29T02:02:06.622Z,23.80
2018-03-29T02:04:34.912Z,23.10
2018-03-29T02:07:03.294Z,21.70
2018-03-29T02:09:32.397Z,23.73
2018-03-29T02:12:00.785Z,22.63
2018-03-29T02:14:29.045Z,21.03
2018-03-29T02:16:57.283Z,22.13
2018-03-29T02:19:26.549Z,21.33
2018-03-29T02:21:55.415Z,20.07
2018-03-29T02:24:23.807Z,20.33
2018-03-29T02:26:53.038Z,19.83
2018-03-29T02:29:21.319Z,20.50
2018-03-29T02:31:49.593Z,20.10
2018-03-29T02:34:18.659Z,20.67
2018-03-29T02:36:46.971Z,19.70
2018-03-29T02:39:16.062Z,20.27
2018-03-29T02:41:45.322Z,20.77
2018-03-29T02:44:13.872Z,19.03
2018-03-29T02:46:42.696Z,18.87
2018-03-29T02:49:11.761Z,20.53
2018-03-29T02:51:40.056Z,20.00
2018-03-29T02:54:08.350Z,20.30
2018-03-29T02:56:37.141Z,19.03
2018-03-29T02:59:05.732Z,20.97
2018-03-29T03:01:33.983Z,21.13
2018-03-29T03:04:02.353Z,20.20
2018-03-29T03:06:30.658Z,20.50
2018-03-29T03:08:59.586Z,19.60
2018-03-29T03:11:29.319Z,21.00
2018-03-29T03:13:58.868Z,21.43
2018-03-29T03:16:27.127Z,21.17
2018-03-29T03:18:55.356Z,20.37
2018-03-29T03:21:24.012Z,20.37
2018-03-29T03:23:52.828Z,20.43
2018-03-29T03:26:21.290Z,20.57
2018-03-29T03:28:49.764Z,20.27
2018-03-29T03:31:17.995Z,18.87
2018-03-29T03:33:47.010Z,19.07
2018-03-29T03:36:15.250Z,18.73
2018-03-29T03:38:44.716Z,17.50
2018-03-29T03:41:13.094Z,16.77
2018-03-29T03:43:42.260Z,17.77
2018-03-29T03:46:10.681Z,16.67
2018-03-29T03:48:38.944Z,15.33
2018-03-29T03:51:07.198Z,16.37
2018-03-29T03:53:35.826Z,16.03
2018-03-29T03:56:04.108Z,15.90
2018-03-29T03:58:32.382Z,15.70
2018-03-29T04:01:00.754Z,15.30
2018-03-29T04:03:29.057Z,15.23
2018-03-29T04:05:57.507Z,14.17
2018-03-29T04:08:26.316Z,15.20
2018-03-29T04:10:54.593Z,15.13
2018-03-29T04:13:23.714Z,14.37
2018-03-29T04:15:52.916Z,14.07
2018-03-29T04:18:21.133Z,14.43
2018-03-29T04:20:49.721Z,15.43
2018-03-29T04:23:17.999Z,13.70
2018-03-29T04:25:47.104Z,13.10
2018-03-29T04:28:15.518Z,13.83
2018-03-29T04:30:43.777Z,14.10
2018-03-29T04:33:12.009Z,12.77
2018-03-29T04:35:40.533Z,14.60
2018-03-29T04:38:08.916Z,11.67
2018-03-29T04:40:37.158Z,13.80
2018-03-29T04:43:05.570Z,11.57
2018-03-29T04:45:33.831Z,13.23
2018-03-29T04:48:02.064Z,17.43
2018-03-29T04:50:30.402Z,17.50
2018-03-29T04:52:58.879Z,21.30
2018-03-29T04:55:27.167Z,20.27
2018-03-29T04:57:55.574Z,15.00
2018-03-29T05:00:25.367Z,18.17
2018-03-29T05:02:53.613Z,16.87
2018-03-29T05:05:22.036Z,19.50
2018-03-29T05:07:51.072Z,15.57
2018-03-29T05:10:20.100Z,16.30
2018-03-29T05:12:48.481Z,15.77
2018-03-29T05:15:17.692Z,14.77
2018-03-29T05:17:46.057Z,13.40
2018-03-29T05:20:14.358Z,14.00
2018-03-29T05:22:42.778Z,14.37
2018-03-29T05:25:11.360Z,15.43
2018-03-29T05:27:39.682Z,14.10
2018-03-29T05:30:07.965Z,15.43
2018-03-29T05:32:36.216Z,14.17
2018-03-29T05:35:04.449Z,14.60
2018-03-29T05:37:33.774Z,15.67
2018-03-29T05:40:02.997Z,15.30
2018-03-29T05:42:32.030Z,14.43
2018-03-29T05:45:00.564Z,14.83
2018-03-29T05:47:28.826Z,16.67
2018-03-29T05:49:57.963Z,18.30
2018-03-29T05:52:26.351Z,16.17
2018-03-29T05:54:54.626Z,16.60
2018-03-29T05:57:23.786Z,16.40
2018-03-29T05:59:52.932Z,16.67
2018-03-29T06:02:21.446Z,16.57
2018-03-29T06:04:49.757Z,17.70
2018-03-29T06:07:18.128Z,18.10
2018-03-29T06:09:46.393Z,17.63
2018-03-29T06:12:15.843Z,17.13
2018-03-29T06:14:45.664Z,18.20
2018-03-29T06:17:19.710Z,18.30
2018-03-29T06:19:49.016Z,18.83
2018-03-29T06:22:17.310Z,19.00
2018-03-29T06:24:46.388Z,18.50
2018-03-29T06:27:14.856Z,18.10
2018-03-29T06:29:43.123Z,18.90
2018-03-29T06:32:11.448Z,19.00
2018-03-29T06:34:39.772Z,19.60
2018-03-29T06:37:08.787Z,19.43
2018-03-29T06:39:37.047Z,18.47
2018-03-29T06:42:05.346Z,18.17
2018-03-29T06:44:36.279Z,18.83
2018-03-29T06:47:04.602Z,19.27
2018-03-29T06:49:32.921Z,19.00
2018-03-29T06:52:01.203Z,19.93
2018-03-29T06:54:30.261Z,19.17
2018-03-29T06:56:58.471Z,18.33
2018-03-29T06:59:26.833Z,19.57
2018-03-29T07:01:55.718Z,18.30
2018-03-29T07:07:05.272Z,18.80
2018-03-29T07:09:33.787Z,18.83
2018-03-29T07:12:02.199Z,18.07
2018-03-29T07:14:31.355Z,19.80
2018-03-29T07:16:59.613Z,18.10
2018-03-29T07:19:28.108Z,18.23
2018-03-29T07:21:56.387Z,18.17
2018-03-29T07:24:24.633Z,17.97
2018-03-29T07:26:53.665Z,18.07
2018-03-29T07:29:21.926Z,17.40
2018-03-29T07:31:50.158Z,17.03
2018-03-29T07:34:18.421Z,16.47
2018-03-29T07:36:46.725Z,15.30
2018-03-29T07:39:15.058Z,16.30
2018-03-29T07:41:43.452Z,15.90
2018-03-29T07:44:12.532Z,15.13
2018-03-29T07:46:40.774Z,16.20
2018-03-29T07:49:08.997Z,15.87
2018-03-29T07:51:37.251Z,14.47
2018-03-29T07:54:06.356Z,16.77
2018-03-29T07:56:34.600Z,15.67
2018-03-29T07:59:02.918Z,16.67
2018-03-29T08:01:31.892Z,15.20
2018-03-29T08:04:00.299Z,13.60
2018-03-29T08:06:28.696Z,13.70
2018-03-29T08:08:57.649Z,13.47
2018-03-29T08:11:25.936Z,12.50
2018-03-29T08:13:54.330Z,12.53
2018-03-29T08:16:22.739Z,13.13
2018-03-29T08:18:51.893Z,11.23
2018-03-29T08:21:20.716Z,10.33
2018-03-29T08:23:49.817Z,10.20
2018-03-29T08:26:18.979Z,9.30
2018-03-29T08:28:47.464Z,8.70
2018-03-29T08:31:15.709Z,7.93
2018-03-29T08:33:44.113Z,7.97
2018-03-29T08:36:12.405Z,7.57
2018-03-29T08:38:40.872Z,6.97
2018-03-29T08:41:09.163Z,7.20
2018-03-29T08:43:37.541Z,6.17
2018-03-29T08:46:05.775Z,6.17
2018-03-29T08:48:34.085Z,6.47
2018-03-29T08:51:02.518Z,5.57
2018-03-29T08:53:31.689Z,5.60
2018-03-29T08:56:00.761Z,5.40
2018-03-29T08:58:29.016Z,5.57
2018-03-29T09:00:57.244Z,4.87
2018-03-29T09:03:25.503Z,4.93
2018-03-29T09:05:53.830Z,5.30
2018-03-29T09:08:22.871Z,4.90
2018-03-29T09:10:51.134Z,4.93
2018-03-29T09:13:19.430Z,5.30
2018-03-29T09:15:47.758Z,5.30
2018-03-29T09:18:16.794Z,5.27
2018-03-29T09:20:45.101Z,4.83
2018-03-29T09:23:13.462Z,4.50
2018-03-29T09:25:41.728Z,4.90
2018-03-29T09:28:09.944Z,4.60
2018-03-29T09:30:38.319Z,4.40
2018-03-29T09:33:06.589Z,3.60
2018-03-29T09:35:34.926Z,3.77
2018-03-29T09:38:03.182Z,4.37
2018-03-29T09:40:32.189Z,4.23
2018-03-29T09:43:00.592Z,7.13
2018-03-29T09:45:28.870Z,6.23
2018-03-29T09:47:57.106Z,7.93
2018-03-29T09:50:26.100Z,6.30
2018-03-29T09:52:55.090Z,5.93
2018-03-29T09:55:24.284Z,10.07
2018-03-29T09:57:52.826Z,12.77
2018-03-29T10:00:27.568Z,6.07
2018-03-29T10:02:55.928Z,3.10
2018-03-29T10:05:30.475Z,3.10
2018-03-29T10:07:58.758Z,2.67
2018-03-29T10:10:27.804Z,3.00
2018-03-29T10:12:56.061Z,4.00
2018-03-29T10:15:24.402Z,3.57
2018-03-29T10:17:54.226Z,2.90
2018-03-29T10:20:22.653Z,6.20
2018-03-29T10:22:51.177Z,3.10
2018-03-29T10:25:19.475Z,2.23
2018-03-29T10:27:47.775Z,2.10
2018-03-29T10:30:17.484Z,3.73
2018-03-29T10:32:46.811Z,3.00
2018-03-29T10:35:15.085Z,2.77
2018-03-29T10:37:43.341Z,2.17
2018-03-29T10:40:11.761Z,2.30
2018-03-29T10:42:40.247Z,2.07
2018-03-29T10:45:09.367Z,2.13
2018-03-29T10:47:37.631Z,1.97
2018-03-29T10:50:06.016Z,1.97
2018-03-29T10:52:34.296Z,2.10
2018-03-29T10:55:02.859Z,1.90
2018-03-29T10:57:31.264Z,2.40
2018-03-29T10:59:59.626Z,2.00
2018-03-29T11:02:27.914Z,1.97
2018-03-29T11:04:56.287Z,2.27
2018-03-29T11:07:26.221Z,2.60
2018-03-29T11:09:55.510Z,2.63
2018-03-29T11:12:24.572Z,12.00
2018-03-29T11:14:52.874Z,9.33
2018-03-29T11:17:21.150Z,1.67
2018-03-29T11:19:49.555Z,1.90
2018-03-29T11:22:18.012Z,1.60
2018-03-29T11:24:46.637Z,2.93
2018-03-29T11:27:15.850Z,6.47
2018-03-29T11:29:44.258Z,2.13
2018-03-29T11:32:12.766Z,2.07
2018-03-29T11:34:41.761Z,2.57
2018-03-29T11:37:10.078Z,14.67
2018-03-29T11:39:38.362Z,1.80
2018-03-29T11:42:07.526Z,1.73
2018-03-29T11:44:36.197Z,2.13
2018-03-29T11:47:05.500Z,2.00
2018-03-29T11:49:33.738Z,2.00
2018-03-29T11:52:02.478Z,2.60
2018-03-29T11:54:31.660Z,1.73
2018-03-29T11:57:01.652Z,1.80
2018-03-29T11:59:29.937Z,2.33
2018-03-29T12:01:58.335Z,3.30
2018-03-29T12:04:26.713Z,2.10
2018-03-29T12:06:55.916Z,2.60
2018-03-29T12:09:24.291Z,3.50
2018-03-29T12:11:52.689Z,2.27
2018-03-29T12:14:21.061Z,10.53
2018-03-29T12:16:49.360Z,5.70
2018-03-29T12:19:18.544Z,7.13
2018-03-29T12:21:46.905Z,7.30
2018-03-29T12:24:15.254Z,3.30
2018-03-29T12:26:43.652Z,3.33
2018-03-29T12:29:12.059Z,7.70
2018-03-29T12:31:41.319Z,8.13
2018-03-29T12:34:09.758Z,2.70
2018-03-29T12:36:38.163Z,4.30
2018-03-29T12:39:07.939Z,4.80
2018-03-29T12:41:36.334Z,3.90
2018-03-29T12:44:04.663Z,5.47
2018-03-29T12:46:32.944Z,6.47
2018-03-29T12:49:01.547Z,4.20
2018-03-29T12:51:29.937Z,3.83
2018-03-29T12:53:59.137Z,12.60
2018-03-29T12:56:39.479Z,11.93
2018-03-29T12:59:07.917Z,3.53
2018-03-29T13:01:37.136Z,3.90
2018-03-29T13:04:06.319Z,13.97
2018-03-29T13:06:35.476Z,3.50
2018-03-29T13:09:04.150Z,4.50
2018-03-29T13:11:32.636Z,7.50
2018-03-29T13:14:01.842Z,3.90
2018-03-29T13:16:30.089Z,8.00
2018-03-29T13:18:58.609Z,5.57
2018-03-29T13:21:26.982Z,2.40
2018-03-29T13:23:55.353Z,3.10
2018-03-29T13:26:23.742Z,6.70
2018-03-29T13:28:52.010Z,3.80
2018-03-29T13:31:20.299Z,2.93
2018-03-29T13:33:48.588Z,3.83
2018-03-29T13:36:16.954Z,4.80
2018-03-29T13:38:45.330Z,4.30
2018-03-29T13:41:13.707Z,5.80
2018-03-29T13:43:41.973Z,3.30
2018-03-29T13:46:10.292Z,5.80
2018-03-29T13:48:39.517Z,3.37
2018-03-29T13:51:07.965Z,8.43
2018-03-29T13:53:38.012Z,2.33
2018-03-29T13:56:06.291Z,2.70
2018-03-29T13:58:35.356Z,2.50
2018-03-29T14:01:04.537Z,1.90
2018-03-29T14:03:32.831Z,2.07
2018-03-29T14:06:01.786Z,2.13
2018-03-29T14:08:30.033Z,1.47
2018-03-29T14:10:58.377Z,1.43
2018-03-29T14:13:26.683Z,1.67
2018-03-29T14:15:55.906Z,1.60
2018-03-29T14:18:24.198Z,10.47
2018-03-29T14:20:52.704Z,1.50
2018-03-29T14:23:20.956Z,1.98
2018-03-29T14:25:49.229Z,1.40
2018-03-29T14:28:17.662Z,1.40
2018-03-29T14:30:46.073Z,1.67
2018-03-29T14:33:14.360Z,1.63
2018-03-29T14:35:43.562Z,1.20
2018-03-29T14:38:11.847Z,1.57
2018-03-29T14:40:40.258Z,3.67
2018-03-29T14:43:09.470Z,1.40
2018-03-29T14:45:38.563Z,1.50
2018-03-29T14:48:07.325Z,1.90
2018-03-29T14:50:36.559Z,1.40
2018-03-29T14:53:04.879Z,1.57
2018-03-29T14:55:33.897Z,1.43
2018-03-29T14:58:02.204Z,1.53
2018-03-29T15:00:31.400Z,2.70
2018-03-29T15:03:00.469Z,6.17
2018-03-29T15:05:28.773Z,1.60
2018-03-29T15:07:57.062Z,2.23
2018-03-29T15:10:25.397Z,6.23
2018-03-29T15:12:53.841Z,2.00
2018-03-29T15:15:23.018Z,13.90
2018-03-29T15:17:51.337Z,2.23
2018-03-29T15:20:19.788Z,2.17
2018-03-29T15:22:48.181Z,2.10
2018-03-29T15:25:16.733Z,2.00
2018-03-29T15:27:45.071Z,2.97
2018-03-29T15:30:14.099Z,8.10
2018-03-29T15:32:42.346Z,1.90
2018-03-29T15:35:10.666Z,7.40
2018-03-29T15:37:38.962Z,3.57
2018-03-29T15:40:08.103Z,5.30
2018-03-29T15:42:36.373Z,2.27
2018-03-29T15:45:05.406Z,2.60
2018-03-29T15:47:33.815Z,2.00
2018-03-29T15:50:02.878Z,1.90
2018-03-29T15:52:31.182Z,1.80
2018-03-29T15:54:59.487Z,2.10
2018-03-29T15:57:28.722Z,1.73
2018-03-29T15:59:56.983Z,1.93
2018-03-29T16:02:26.112Z,1.93
2018-03-29T16:04:54.501Z,2.30
2018-03-29T16:07:22.985Z,2.10
2018-03-29T16:09:51.245Z,2.00
2018-03-29T16:12:19.736Z,1.83
2018-03-29T16:14:48.003Z,2.10
2018-03-29T16:17:16.300Z,1.93
2018-03-29T16:19:45.409Z,2.10
2018-03-29T16:22:15.128Z,1.90
2018-03-29T16:24:43.622Z,2.13
2018-03-29T16:27:12.055Z,2.07
2018-03-29T16:29:40.430Z,2.00
2018-03-29T16:32:08.679Z,1.80
2018-03-29T16:34:37.849Z,2.00
2018-03-29T16:37:06.954Z,2.10
2018-03-29T16:39:36.761Z,2.00
2018-03-29T16:42:05.129Z,2.13
2018-03-29T16:44:33.374Z,1.60
2018-03-29T16:47:01.877Z,1.90
2018-03-29T16:49:30.231Z,2.07
2018-03-29T16:51:58.530Z,2.20
2018-03-29T16:54:26.813Z,2.10
2018-03-29T16:56:55.067Z,1.97
2018-03-29T16:59:34.259Z,1.80
2018-03-29T17:02:03.346Z,1.70
2018-03-29T17:04:31.622Z,2.00
2018-03-29T17:06:59.842Z,1.90
2018-03-29T17:09:28.900Z,1.70
2018-03-29T17:11:57.170Z,1.80
2018-03-29T17:14:25.520Z,2.13
2018-03-29T17:16:53.818Z,2.40
2018-03-29T17:19:22.886Z,1.80
2018-03-29T17:21:51.092Z,2.47
2018-03-29T17:24:19.394Z,2.37
2018-03-29T17:26:48.243Z,2.07
2018-03-29T17:29:16.579Z,2.13
2018-03-29T17:31:44.858Z,2.20
2018-03-29T17:34:13.899Z,1.80
2018-03-29T17:36:43.004Z,2.00
2018-03-29T17:39:11.270Z,1.90
2018-03-29T17:41:39.700Z,2.00
2018-03-29T17:44:08.141Z,1.90
2018-03-29T17:46:36.443Z,2.17
2018-03-29T17:49:04.808Z,2.40
2018-03-29T17:51:33.068Z,2.30
2018-03-29T17:54:01.496Z,2.20
2018-03-29T17:56:29.970Z,2.10
2018-03-29T17:58:58.219Z,2.37
2018-03-29T18:01:26.585Z,2.23
2018-03-29T18:03:54.912Z,2.53
2018-03-29T18:06:24.038Z,2.50
2018-03-29T18:08:53.111Z,2.60
2018-03-29T18:11:23.842Z,2.73
2018-03-29T18:13:52.216Z,2.30
2018-03-29T18:16:20.552Z,2.23
2018-03-29T18:18:49.669Z,2.20
2018-03-29T18:21:19.319Z,2.10
2018-03-29T18:23:49.087Z,1.93
2018-03-29T18:26:19.584Z,2.10
2018-03-29T18:28:51.158Z,2.00
2018-03-29T18:31:20.956Z,1.80
2018-03-29T18:33:52.019Z,2.03
2018-03-29T18:36:21.808Z,2.00
2018-03-29T18:38:54.475Z,2.30
2018-03-29T18:41:26.239Z,4.90
2018-03-29T18:43:58.050Z,2.50
2018-03-29T18:46:27.272Z,2.10
2018-03-29T18:48:55.627Z,2.10
2018-03-29T18:51:24.844Z,2.10
2018-03-29T18:53:54.581Z,2.10
2018-03-29T18:56:23.869Z,2.10
2018-03-29T19:01:33.020Z,2.20
2018-03-29T19:04:02.170Z,2.30
2018-03-29T19:06:32.806Z,3.17
2018-03-29T19:09:01.817Z,4.83
2018-03-29T19:11:30.078Z,2.77
2018-03-29T19:13:58.473Z,2.30
2018-03-29T19:16:27.559Z,2.67
2018-03-29T19:18:55.962Z,2.50
2018-03-29T19:21:24.440Z,2.57
2018-03-29T19:23:53.482Z,2.87
2018-03-29T19:26:21.754Z,2.33
2018-03-29T19:28:49.998Z,2.33
2018-03-29T19:31:18.288Z,3.10
2018-03-29T19:33:47.446Z,2.40
2018-03-29T19:36:16.639Z,2.70
2018-03-29T19:38:45.039Z,2.67
2018-03-29T19:41:13.276Z,2.30
2018-03-29T19:43:41.576Z,2.27
2018-03-29T19:46:09.860Z,2.30
2018-03-29T19:48:38.208Z,2.47
2018-03-29T19:51:06.468Z,2.40
2018-03-29T19:53:34.988Z,2.27
2018-03-29T19:56:03.641Z,2.50
2018-03-29T19:58:32.834Z,2.33
2018-03-29T20:01:01.899Z,2.60
2018-03-29T20:03:30.205Z,2.83
2018-03-29T20:05:59.252Z,2.40
2018-03-29T20:08:28.387Z,2.60
2018-03-29T20:10:56.726Z,3.17
2018-03-29T20:13:24.997Z,2.90
2018-03-29T20:15:53.343Z,2.93
2018-03-29T20:18:21.817Z,3.10
2018-03-29T20:20:51.094Z,2.70
2018-03-29T20:23:19.451Z,3.40
2018-03-29T20:25:47.894Z,3.37
2018-03-29T20:28:16.755Z,3.40
2018-03-29T20:30:45.774Z,3.10
2018-03-29T20:33:14.918Z,3.07
2018-03-29T20:35:43.168Z,3.40
2018-03-29T20:38:11.456Z,3.73
2018-03-29T20:40:40.572Z,3.60
2018-03-29T20:43:08.790Z,4.13
2018-03-29T20:45:37.943Z,4.47
2018-03-29T20:48:07.009Z,4.17
2018-03-29T20:50:36.235Z,4.00
2018-03-29T20:53:04.464Z,4.50
2018-03-29T20:55:32.881Z,4.50
2018-03-29T20:58:01.131Z,5.17
2018-03-29T21:00:30.134Z,5.60
2018-03-29T21:02:58.539Z,5.03
2018-03-29T21:05:26.946Z,4.30
2018-03-29T21:07:55.402Z,4.30
2018-03-29T21:10:23.627Z,3.80
2018-03-29T21:12:51.904Z,4.43
2018-03-29T21:15:20.202Z,4.17
2018-03-29T21:17:49.851Z,4.60
2018-03-29T21:20:18.107Z,4.20
2018-03-29T21:22:47.123Z,4.67
2018-03-29T21:25:15.417Z,4.70
2018-03-29T21:27:44.438Z,4.50
2018-03-29T21:30:12.929Z,4.40
2018-03-29T21:32:41.389Z,4.73
2018-03-29T21:35:09.804Z,4.63
2018-03-29T21:37:38.142Z,4.50
2018-03-29T21:40:06.620Z,5.20
2018-03-29T21:42:34.980Z,4.90
2018-03-29T21:45:03.306Z,4.77
2018-03-29T21:47:33.061Z,5.20
2018-03-29T21:50:01.305Z,5.57
2018-03-29T21:52:31.300Z,5.40
2018-03-29T21:54:59.672Z,5.30
2018-03-29T21:57:27.901Z,5.83
2018-03-29T21:59:56.412Z,6.07
2018-03-29T22:02:26.172Z,6.17
2018-03-29T22:04:54.433Z,6.23
2018-03-29T22:07:23.522Z,6.33
2018-03-29T22:09:51.793Z,7.20
2018-03-29T22:12:21.693Z,6.77
2018-03-29T22:14:50.462Z,6.77
2018-03-29T22:17:18.853Z,7.10
2018-03-29T22:19:47.133Z,7.20
2018-03-29T22:22:15.635Z,7.13
2018-03-29T22:24:44.100Z,7.93
2018-03-29T22:27:12.581Z,7.10
2018-03-29T22:29:41.176Z,6.50
2018-03-29T22:32:09.789Z,6.20
2018-03-29T22:34:39.046Z,5.17
2018-03-29T22:37:09.788Z,5.43
2018-03-29T22:39:38.816Z,5.67
2018-03-29T22:42:07.837Z,4.83
2018-03-29T22:44:36.156Z,4.00
2018-03-29T22:47:04.381Z,4.17
2018-03-29T22:49:33.405Z,4.03
2018-03-29T22:52:01.707Z,4.00
2018-03-29T22:54:30.085Z,3.73
2018-03-29T22:56:58.376Z,3.90
2018-03-29T22:59:26.767Z,3.80
2018-03-29T23:01:55.232Z,4.00
2018-03-29T23:04:24.340Z,3.47
2018-03-29T23:06:53.503Z,3.73
2018-03-29T23:09:21.806Z,3.50
2018-03-29T23:11:50.020Z,3.57
2018-03-29T23:14:20.006Z,3.13
2018-03-29T23:16:48.334Z,3.23
2018-03-29T23:19:16.631Z,2.63
2018-03-29T23:21:44.971Z,3.00
2018-03-29T23:24:13.420Z,2.93
2018-03-29T23:26:42.376Z,3.00
2018-03-29T23:29:11.494Z,2.70
2018-03-29T23:31:39.803Z,2.93
2018-03-29T23:34:08.070Z,2.50
2018-03-29T23:36:36.342Z,2.83
2018-03-29T23:39:04.659Z,3.00
2018-03-29T23:41:33.035Z,2.70
2018-03-29T23:44:01.377Z,2.97
2018-03-29T23:46:29.605Z,2.70
2018-03-29T23:48:57.957Z,2.47
2018-03-29T23:51:26.349Z,2.50
2018-03-29T23:53:54.744Z,2.40
2018-03-29T23:56:23.760Z,2.70
2018-03-29T23:58:52.712Z,2.53
